Аэропорт: Якутск. Якутск

ICAO: UEEE

METAR:
2019-07-23 18:30:00
UEEE 231830Z 29002MPS CAVOK 06/01 Q1014 R23L/09//60 NOSIG RMK QFE751
METAR:
2019-07-23 17:00:00
TAF UEEE 231700Z 2318/2424 10003MPS 5000 FU NSC